sensor_id;sensor_type;location;lat;lon;timestamp;P1;durP1;ratioP1;P2;durP2;ratioP2
52186;SDS011;38161;53.020;6.598;2023-03-14T00:00:32;22.40;;;5.30;;
52186;SDS011;38161;53.020;6.598;2023-03-14T00:02:58;28.00;;;5.00;;
52186;SDS011;38161;53.020;6.598;2023-03-14T00:05:24;28.65;;;6.28;;
52186;SDS011;38161;53.020;6.598;2023-03-14T00:07:50;26.15;;;5.35;;
52186;SDS011;38161;53.020;6.598;2023-03-14T00:10:16;29.45;;;5.18;;
52186;SDS011;38161;53.020;6.598;2023-03-14T00:15:08;25.58;;;5.00;;
52186;SDS011;38161;53.020;6.598;2023-03-14T00:17:35;26.52;;;5.28;;
52186;SDS011;38161;53.020;6.598;2023-03-14T00:22:36;21.30;;;4.60;;
52186;SDS011;38161;53.020;6.598;2023-03-14T00:25:04;29.05;;;5.18;;
52186;SDS011;38161;53.020;6.598;2023-03-14T00:27:31;24.10;;;4.88;;
52186;SDS011;38161;53.020;6.598;2023-03-14T00:29:57;24.23;;;5.18;;
52186;SDS011;38161;53.020;6.598;2023-03-14T00:32:23;23.17;;;4.23;;
52186;SDS011;38161;53.020;6.598;2023-03-14T00:34:48;29.73;;;4.18;;
52186;SDS011;38161;53.020;6.598;2023-03-14T00:37:14;19.88;;;5.20;;
52186;SDS011;38161;53.020;6.598;2023-03-14T00:39:40;21.92;;;4.88;;
52186;SDS011;38161;53.020;6.598;2023-03-14T00:42:06;23.08;;;3.97;;
52186;SDS011;38161;53.020;6.598;2023-03-14T00:44:32;23.03;;;4.97;;
52186;SDS011;38161;53.020;6.598;2023-03-14T00:46:58;24.88;;;4.35;;
52186;SDS011;38161;53.020;6.598;2023-03-14T00:49:24;21.00;;;5.07;;
52186;SDS011;38161;53.020;6.598;2023-03-14T00:51:50;24.38;;;4.90;;
52186;SDS011;38161;53.020;6.598;2023-03-14T00:54:16;21.23;;;4.80;;
52186;SDS011;38161;53.020;6.598;2023-03-14T00:56:43;22.23;;;4.72;;
52186;SDS011;38161;53.020;6.598;2023-03-14T00:59:08;24.33;;;4.50;;
52186;SDS011;38161;53.020;6.598;2023-03-14T01:01:34;24.03;;;4.67;;
52186;SDS011;38161;53.020;6.598;2023-03-14T01:04:00;22.08;;;4.93;;
52186;SDS011;38161;53.020;6.598;2023-03-14T01:06:27;22.67;;;4.57;;
52186;SDS011;38161;53.020;6.598;2023-03-14T01:08:54;21.95;;;5.13;;
52186;SDS011;38161;53.020;6.598;2023-03-14T01:13:48;21.75;;;5.25;;
52186;SDS011;38161;53.020;6.598;2023-03-14T01:16:14;17.58;;;5.15;;
52186;SDS011;38161;53.020;6.598;2023-03-14T01:18:41;20.65;;;4.97;;
52186;SDS011;38161;53.020;6.598;2023-03-14T01:23:45;24.40;;;4.95;;
52186;SDS011;38161;53.020;6.598;2023-03-14T01:26:13;19.50;;;4.75;;
52186;SDS011;38161;53.020;6.598;2023-03-14T01:28:40;15.48;;;4.13;;
52186;SDS011;38161;53.020;6.598;2023-03-14T01:31:07;19.52;;;4.18;;
52186;SDS011;38161;53.020;6.598;2023-03-14T01:33:34;21.48;;;4.35;;
52186;SDS011;38161;53.020;6.598;2023-03-14T01:36:01;18.30;;;4.60;;
52186;SDS011;38161;53.020;6.598;2023-03-14T01:38:28;23.80;;;4.80;;
52186;SDS011;38161;53.020;6.598;2023-03-14T01:40:54;22.85;;;4.72;;
52186;SDS011;38161;53.020;6.598;2023-03-14T01:43:20;24.77;;;4.18;;
52186;SDS011;38161;53.020;6.598;2023-03-14T01:51:12;16.88;;;3.83;;
52186;SDS011;38161;53.020;6.598;2023-03-14T01:53:59;15.68;;;4.03;;
52186;SDS011;38161;53.020;6.598;2023-03-14T01:56:29;19.25;;;3.85;;
52186;SDS011;38161;53.020;6.598;2023-03-14T01:58:57;17.13;;;3.83;;
52186;SDS011;38161;53.020;6.598;2023-03-14T02:01:24;17.75;;;3.45;;
52186;SDS011;38161;53.020;6.598;2023-03-14T02:03:52;17.30;;;3.75;;
52186;SDS011;38161;53.020;6.598;2023-03-14T02:06:22;14.90;;;3.45;;
52186;SDS011;38161;53.020;6.598;2023-03-14T02:08:51;18.60;;;3.60;;
52186;SDS011;38161;53.020;6.598;2023-03-14T02:11:17;25.00;;;4.28;;
52186;SDS011;38161;53.020;6.598;2023-03-14T02:13:44;14.70;;;3.25;;
52186;SDS011;38161;53.020;6.598;2023-03-14T02:16:09;12.82;;;3.15;;
52186;SDS011;38161;53.020;6.598;2023-03-14T02:18:36;15.38;;;3.47;;
52186;SDS011;38161;53.020;6.598;2023-03-14T02:26:28;8.25;;;2.90;;
52186;SDS011;38161;53.020;6.598;2023-03-14T02:29:10;14.88;;;3.55;;
52186;SDS011;38161;53.020;6.598;2023-03-14T02:31:36;18.23;;;3.67;;
52186;SDS011;38161;53.020;6.598;2023-03-14T02:34:02;12.55;;;3.20;;
52186;SDS011;38161;53.020;6.598;2023-03-14T02:36:28;11.20;;;2.90;;
52186;SDS011;38161;53.020;6.598;2023-03-14T02:38:55;15.55;;;3.65;;
52186;SDS011;38161;53.020;6.598;2023-03-14T02:41:33;12.82;;;3.38;;
52186;SDS011;38161;53.020;6.598;2023-03-14T02:43:59;11.97;;;2.93;;
52186;SDS011;38161;53.020;6.598;2023-03-14T02:46:24;10.77;;;2.67;;
52186;SDS011;38161;53.020;6.598;2023-03-14T02:51:26;10.82;;;2.60;;
52186;SDS011;38161;53.020;6.598;2023-03-14T02:53:54;15.73;;;2.75;;
52186;SDS011;38161;53.020;6.598;2023-03-14T02:56:19;13.40;;;3.00;;
52186;SDS011;38161;53.020;6.598;2023-03-14T02:58:45;8.93;;;2.92;;
52186;SDS011;38161;53.020;6.598;2023-03-14T03:01:11;11.37;;;3.00;;
52186;SDS011;38161;53.020;6.598;2023-03-14T03:03:37;12.77;;;3.13;;
52186;SDS011;38161;53.020;6.598;2023-03-14T03:06:02;15.90;;;3.53;;
52186;SDS011;38161;53.020;6.598;2023-03-14T03:08:29;16.77;;;3.97;;
52186;SDS011;38161;53.020;6.598;2023-03-14T03:10:55;17.63;;;4.60;;
52186;SDS011;38161;53.020;6.598;2023-03-14T03:13:22;15.32;;;4.35;;
52186;SDS011;38161;53.020;6.598;2023-03-14T03:15:48;14.00;;;4.83;;
52186;SDS011;38161;53.020;6.598;2023-03-14T03:18:14;22.23;;;5.55;;
52186;SDS011;38161;53.020;6.598;2023-03-14T03:20:40;21.02;;;5.13;;
52186;SDS011;38161;53.020;6.598;2023-03-14T03:23:06;16.60;;;5.80;;
52186;SDS011;38161;53.020;6.598;2023-03-14T03:25:32;21.33;;;5.47;;
52186;SDS011;38161;53.020;6.598;2023-03-14T03:27:58;22.77;;;5.32;;
52186;SDS011;38161;53.020;6.598;2023-03-14T03:30:24;18.42;;;5.18;;
52186;SDS011;38161;53.020;6.598;2023-03-14T03:32:49;18.27;;;4.73;;
52186;SDS011;38161;53.020;6.598;2023-03-14T03:35:15;13.38;;;4.78;;
52186;SDS011;38161;53.020;6.598;2023-03-14T03:37:41;17.08;;;5.20;;
52186;SDS011;38161;53.020;6.598;2023-03-14T03:40:07;16.95;;;4.63;;
52186;SDS011;38161;53.020;6.598;2023-03-14T03:42:34;20.50;;;5.45;;
52186;SDS011;38161;53.020;6.598;2023-03-14T03:45:00;18.38;;;5.85;;
52186;SDS011;38161;53.020;6.598;2023-03-14T03:47:26;19.65;;;4.65;;
52186;SDS011;38161;53.020;6.598;2023-03-14T03:49:52;13.23;;;4.28;;
52186;SDS011;38161;53.020;6.598;2023-03-14T03:52:18;18.10;;;5.45;;
52186;SDS011;38161;53.020;6.598;2023-03-14T03:54:45;17.10;;;5.35;;
52186;SDS011;38161;53.020;6.598;2023-03-14T03:57:11;15.87;;;5.40;;
52186;SDS011;38161;53.020;6.598;2023-03-14T03:59:37;17.30;;;4.97;;
52186;SDS011;38161;53.020;6.598;2023-03-14T04:02:05;15.50;;;5.38;;
52186;SDS011;38161;53.020;6.598;2023-03-14T04:04:31;21.65;;;6.43;;
52186;SDS011;38161;53.020;6.598;2023-03-14T04:06:56;20.77;;;5.80;;
52186;SDS011;38161;53.020;6.598;2023-03-14T04:09:22;18.73;;;5.90;;
52186;SDS011;38161;53.020;6.598;2023-03-14T04:11:48;14.40;;;5.23;;
52186;SDS011;38161;53.020;6.598;2023-03-14T04:14:14;21.70;;;5.50;;
52186;SDS011;38161;53.020;6.598;2023-03-14T04:16:39;19.42;;;6.13;;
52186;SDS011;38161;53.020;6.598;2023-03-14T04:19:05;19.67;;;5.80;;
52186;SDS011;38161;53.020;6.598;2023-03-14T04:21:31;19.10;;;6.27;;
52186;SDS011;38161;53.020;6.598;2023-03-14T04:23:57;18.67;;;6.03;;
52186;SDS011;38161;53.020;6.598;2023-03-14T04:26:22;17.35;;;5.55;;
52186;SDS011;38161;53.020;6.598;2023-03-14T04:28:48;15.27;;;5.63;;
52186;SDS011;38161;53.020;6.598;2023-03-14T04:31:15;19.27;;;6.23;;
52186;SDS011;38161;53.020;6.598;2023-03-14T04:33:46;18.73;;;5.78;;
52186;SDS011;38161;53.020;6.598;2023-03-14T04:36:12;13.98;;;5.60;;
52186;SDS011;38161;53.020;6.598;2023-03-14T04:38:38;15.55;;;5.70;;
52186;SDS011;38161;53.020;6.598;2023-03-14T04:41:04;15.18;;;5.50;;
52186;SDS011;38161;53.020;6.598;2023-03-14T04:43:31;18.42;;;5.22;;
52186;SDS011;38161;53.020;6.598;2023-03-14T04:45:57;12.73;;;4.70;;
52186;SDS011;38161;53.020;6.598;2023-03-14T04:48:24;14.57;;;4.80;;
52186;SDS011;38161;53.020;6.598;2023-03-14T04:50:50;11.10;;;4.00;;
52186;SDS011;38161;53.020;6.598;2023-03-14T04:53:17;11.30;;;4.30;;
52186;SDS011;38161;53.020;6.598;2023-03-14T04:58:19;13.90;;;5.15;;
52186;SDS011;38161;53.020;6.598;2023-03-14T05:00:45;16.13;;;4.68;;
52186;SDS011;38161;53.020;6.598;2023-03-14T05:03:11;13.52;;;4.95;;
52186;SDS011;38161;53.020;6.598;2023-03-14T05:05:39;12.13;;;4.80;;
52186;SDS011;38161;53.020;6.598;2023-03-14T05:08:05;13.67;;;5.20;;
52186;SDS011;38161;53.020;6.598;2023-03-14T05:10:30;13.77;;;5.45;;
52186;SDS011;38161;53.020;6.598;2023-03-14T05:12:56;12.27;;;4.70;;
52186;SDS011;38161;53.020;6.598;2023-03-14T05:15:22;11.43;;;4.60;;
52186;SDS011;38161;53.020;6.598;2023-03-14T05:17:47;18.97;;;5.37;;
52186;SDS011;38161;53.020;6.598;2023-03-14T05:20:14;16.50;;;5.35;;
52186;SDS011;38161;53.020;6.598;2023-03-14T05:22:40;16.38;;;5.53;;
52186;SDS011;38161;53.020;6.598;2023-03-14T05:25:07;12.52;;;4.78;;
52186;SDS011;38161;53.020;6.598;2023-03-14T05:27:33;16.75;;;5.80;;
52186;SDS011;38161;53.020;6.598;2023-03-14T05:30:00;14.07;;;5.47;;
52186;SDS011;38161;53.020;6.598;2023-03-14T05:32:26;17.05;;;5.90;;
52186;SDS011;38161;53.020;6.598;2023-03-14T05:34:52;19.17;;;6.60;;
52186;SDS011;38161;53.020;6.598;2023-03-14T05:37:17;16.53;;;5.70;;
52186;SDS011;38161;53.020;6.598;2023-03-14T05:39:43;15.67;;;6.20;;
52186;SDS011;38161;53.020;6.598;2023-03-14T05:42:09;16.90;;;6.70;;
52186;SDS011;38161;53.020;6.598;2023-03-14T05:44:34;22.03;;;7.30;;
52186;SDS011;38161;53.020;6.598;2023-03-14T05:47:00;21.03;;;6.43;;
52186;SDS011;38161;53.020;6.598;2023-03-14T05:49:26;18.13;;;6.33;;
52186;SDS011;38161;53.020;6.598;2023-03-14T05:51:51;20.50;;;6.80;;
52186;SDS011;38161;53.020;6.598;2023-03-14T05:54:17;19.47;;;6.40;;
52186;SDS011;38161;53.020;6.598;2023-03-14T05:56:43;20.83;;;7.03;;
52186;SDS011;38161;53.020;6.598;2023-03-14T05:59:09;14.43;;;6.43;;
52186;SDS011;38161;53.020;6.598;2023-03-14T06:01:35;19.67;;;7.18;;
52186;SDS011;38161;53.020;6.598;2023-03-14T06:04:00;17.92;;;6.25;;
52186;SDS011;38161;53.020;6.598;2023-03-14T06:06:26;18.00;;;6.70;;
52186;SDS011;38161;53.020;6.598;2023-03-14T06:08:52;18.13;;;6.37;;
52186;SDS011;38161;53.020;6.598;2023-03-14T06:11:18;14.30;;;6.07;;
52186;SDS011;38161;53.020;6.598;2023-03-14T06:13:43;10.07;;;5.57;;
52186;SDS011;38161;53.020;6.598;2023-03-14T06:16:09;16.70;;;6.35;;
52186;SDS011;38161;53.020;6.598;2023-03-14T06:18:35;14.45;;;5.90;;
52186;SDS011;38161;53.020;6.598;2023-03-14T06:21:01;14.60;;;6.13;;
52186;SDS011;38161;53.020;6.598;2023-03-14T06:23:27;15.77;;;6.03;;
52186;SDS011;38161;53.020;6.598;2023-03-14T06:25:55;10.65;;;5.15;;
52186;SDS011;38161;53.020;6.598;2023-03-14T06:28:21;13.52;;;5.40;;
52186;SDS011;38161;53.020;6.598;2023-03-14T06:30:47;14.67;;;5.17;;
52186;SDS011;38161;53.020;6.598;2023-03-14T06:33:13;12.57;;;5.68;;
52186;SDS011;38161;53.020;6.598;2023-03-14T06:35:39;10.80;;;5.03;;
52186;SDS011;38161;53.020;6.598;2023-03-14T06:38:05;16.67;;;6.00;;
52186;SDS011;38161;53.020;6.598;2023-03-14T06:40:31;17.93;;;5.97;;
52186;SDS011;38161;53.020;6.598;2023-03-14T06:42:56;15.33;;;6.10;;
52186;SDS011;38161;53.020;6.598;2023-03-14T06:45:22;13.60;;;6.00;;
52186;SDS011;38161;53.020;6.598;2023-03-14T06:47:48;11.52;;;5.90;;
52186;SDS011;38161;53.020;6.598;2023-03-14T06:50:14;15.70;;;5.80;;
52186;SDS011;38161;53.020;6.598;2023-03-14T06:52:40;16.10;;;5.82;;
52186;SDS011;38161;53.020;6.598;2023-03-14T06:55:11;14.55;;;5.45;;
52186;SDS011;38161;53.020;6.598;2023-03-14T06:57:37;16.50;;;5.37;;
52186;SDS011;38161;53.020;6.598;2023-03-14T07:00:03;13.80;;;5.33;;
52186;SDS011;38161;53.020;6.598;2023-03-14T07:02:29;17.95;;;6.65;;
52186;SDS011;38161;53.020;6.598;2023-03-14T07:04:55;11.15;;;2.17;;
52186;SDS011;38161;53.020;6.598;2023-03-14T07:07:21;8.50;;;1.93;;
52186;SDS011;38161;53.020;6.598;2023-03-14T07:09:47;6.47;;;1.80;;
52186;SDS011;38161;53.020;6.598;2023-03-14T07:12:12;13.33;;;1.77;;
52186;SDS011;38161;53.020;6.598;2023-03-14T07:14:38;12.52;;;2.03;;
52186;SDS011;38161;53.020;6.598;2023-03-14T07:17:04;10.37;;;1.70;;
52186;SDS011;38161;53.020;6.598;2023-03-14T07:19:30;13.67;;;2.00;;
52186;SDS011;38161;53.020;6.598;2023-03-14T07:21:55;9.77;;;2.20;;
52186;SDS011;38161;53.020;6.598;2023-03-14T07:24:22;7.30;;;1.67;;
52186;SDS011;38161;53.020;6.598;2023-03-14T07:26:48;10.15;;;1.50;;
52186;SDS011;38161;53.020;6.598;2023-03-14T07:29:13;13.55;;;1.48;;
52186;SDS011;38161;53.020;6.598;2023-03-14T07:31:39;10.90;;;2.00;;
52186;SDS011;38161;53.020;6.598;2023-03-14T07:34:05;10.90;;;1.40;;
52186;SDS011;38161;53.020;6.598;2023-03-14T07:36:31;10.60;;;1.47;;
52186;SDS011;38161;53.020;6.598;2023-03-14T07:38:57;5.78;;;1.13;;
52186;SDS011;38161;53.020;6.598;2023-03-14T07:41:22;9.63;;;1.30;;
52186;SDS011;38161;53.020;6.598;2023-03-14T07:43:49;6.53;;;1.00;;
52186;SDS011;38161;53.020;6.598;2023-03-14T07:46:14;4.32;;;0.60;;
52186;SDS011;38161;53.020;6.598;2023-03-14T07:48:41;5.97;;;0.63;;
52186;SDS011;38161;53.020;6.598;2023-03-14T07:51:07;9.48;;;0.90;;
52186;SDS011;38161;53.020;6.598;2023-03-14T07:53:32;5.10;;;0.75;;
52186;SDS011;38161;53.020;6.598;2023-03-14T07:55:58;4.20;;;0.70;;
52186;SDS011;38161;53.020;6.598;2023-03-14T07:58:24;6.63;;;0.63;;
52186;SDS011;38161;53.020;6.598;2023-03-14T08:00:50;2.30;;;0.40;;
52186;SDS011;38161;53.020;6.598;2023-03-14T08:03:17;5.38;;;0.63;;
52186;SDS011;38161;53.020;6.598;2023-03-14T08:05:43;3.88;;;0.43;;
52186;SDS011;38161;53.020;6.598;2023-03-14T08:08:11;2.22;;;0.40;;
52186;SDS011;38161;53.020;6.598;2023-03-14T08:10:37;5.80;;;0.70;;
52186;SDS011;38161;53.020;6.598;2023-03-14T08:13:03;2.67;;;0.40;;
52186;SDS011;38161;53.020;6.598;2023-03-14T08:15:29;4.53;;;0.47;;
52186;SDS011;38161;53.020;6.598;2023-03-14T08:17:56;1.50;;;0.30;;
52186;SDS011;38161;53.020;6.598;2023-03-14T08:20:22;5.28;;;0.70;;
52186;SDS011;38161;53.020;6.598;2023-03-14T08:22:50;2.60;;;0.50;;
52186;SDS011;38161;53.020;6.598;2023-03-14T08:25:16;2.60;;;0.50;;
52186;SDS011;38161;53.020;6.598;2023-03-14T08:27:42;6.18;;;0.70;;
52186;SDS011;38161;53.020;6.598;2023-03-14T08:30:11;4.20;;;0.70;;
52186;SDS011;38161;53.020;6.598;2023-03-14T08:32:41;4.97;;;0.90;;
52186;SDS011;38161;53.020;6.598;2023-03-14T08:35:07;1.73;;;0.60;;
52186;SDS011;38161;53.020;6.598;2023-03-14T08:37:34;5.38;;;0.65;;
52186;SDS011;38161;53.020;6.598;2023-03-14T08:40:01;8.15;;;0.90;;
52186;SDS011;38161;53.020;6.598;2023-03-14T08:42:33;3.28;;;0.60;;
52186;SDS011;38161;53.020;6.598;2023-03-14T08:44:59;5.25;;;0.85;;
52186;SDS011;38161;53.020;6.598;2023-03-14T08:47:25;5.07;;;0.60;;
52186;SDS011;38161;53.020;6.598;2023-03-14T08:49:50;3.50;;;0.67;;
52186;SDS011;38161;53.020;6.598;2023-03-14T08:52:16;6.22;;;0.80;;
52186;SDS011;38161;53.020;6.598;2023-03-14T08:54:45;5.20;;;0.73;;
52186;SDS011;38161;53.020;6.598;2023-03-14T08:57:11;5.22;;;0.90;;
52186;SDS011;38161;53.020;6.598;2023-03-14T08:59:37;5.53;;;1.23;;
52186;SDS011;38161;53.020;6.598;2023-03-14T09:02:03;7.33;;;1.00;;
52186;SDS011;38161;53.020;6.598;2023-03-14T09:04:29;7.97;;;1.40;;
52186;SDS011;38161;53.020;6.598;2023-03-14T09:06:55;10.35;;;1.50;;
52186;SDS011;38161;53.020;6.598;2023-03-14T09:09:23;10.25;;;1.38;;
52186;SDS011;38161;53.020;6.598;2023-03-14T09:14:15;14.05;;;2.00;;
52186;SDS011;38161;53.020;6.598;2023-03-14T09:16:41;13.65;;;1.85;;
52186;SDS011;38161;53.020;6.598;2023-03-14T09:19:07;13.57;;;2.13;;
52186;SDS011;38161;53.020;6.598;2023-03-14T09:21:32;14.20;;;2.07;;
52186;SDS011;38161;53.020;6.598;2023-03-14T09:23:58;15.23;;;2.83;;
52186;SDS011;38161;53.020;6.598;2023-03-14T09:26:24;14.00;;;1.90;;
52186;SDS011;38161;53.020;6.598;2023-03-14T09:28:50;13.67;;;2.40;;
52186;SDS011;38161;53.020;6.598;2023-03-14T09:31:15;12.00;;;2.70;;
52186;SDS011;38161;53.020;6.598;2023-03-14T09:33:41;16.77;;;2.80;;
52186;SDS011;38161;53.020;6.598;2023-03-14T09:36:07;20.07;;;2.70;;
52186;SDS011;38161;53.020;6.598;2023-03-14T09:38:33;19.88;;;2.63;;
52186;SDS011;38161;53.020;6.598;2023-03-14T09:41:00;15.30;;;3.28;;
52186;SDS011;38161;53.020;6.598;2023-03-14T09:43:28;22.27;;;3.13;;
52186;SDS011;38161;53.020;6.598;2023-03-14T09:45:57;21.08;;;3.22;;
52186;SDS011;38161;53.020;6.598;2023-03-14T09:48:27;17.20;;;3.58;;
52186;SDS011;38161;53.020;6.598;2023-03-14T09:50:56;21.23;;;2.85;;
52186;SDS011;38161;53.020;6.598;2023-03-14T09:53:26;19.15;;;3.15;;
52186;SDS011;38161;53.020;6.598;2023-03-14T09:55:57;25.92;;;3.78;;
52186;SDS011;38161;53.020;6.598;2023-03-14T09:58:23;21.40;;;3.25;;
52186;SDS011;38161;53.020;6.598;2023-03-14T10:00:52;27.05;;;4.45;;
52186;SDS011;38161;53.020;6.598;2023-03-14T10:03:22;20.27;;;3.30;;
52186;SDS011;38161;53.020;6.598;2023-03-14T10:05:56;23.00;;;4.05;;
52186;SDS011;38161;53.020;6.598;2023-03-14T10:08:22;20.63;;;2.78;;
52186;SDS011;38161;53.020;6.598;2023-03-14T10:10:48;17.87;;;3.23;;
52186;SDS011;38161;53.020;6.598;2023-03-14T10:13:15;23.85;;;3.28;;
52186;SDS011;38161;53.020;6.598;2023-03-14T10:18:31;18.25;;;2.95;;
52186;SDS011;38161;53.020;6.598;2023-03-14T10:23:32;23.33;;;3.40;;
52186;SDS011;38161;53.020;6.598;2023-03-14T10:26:18;23.70;;;3.63;;
52186;SDS011;38161;53.020;6.598;2023-03-14T10:28:52;24.70;;;3.42;;
52186;SDS011;38161;53.020;6.598;2023-03-14T10:31:25;24.73;;;3.83;;
52186;SDS011;38161;53.020;6.598;2023-03-14T10:34:04;21.70;;;3.30;;
52186;SDS011;38161;53.020;6.598;2023-03-14T10:36:32;27.52;;;4.15;;
52186;SDS011;38161;53.020;6.598;2023-03-14T10:45:00;15.80;;;2.63;;
52186;SDS011;38161;53.020;6.598;2023-03-14T10:47:32;17.55;;;3.25;;
52186;SDS011;38161;53.020;6.598;2023-03-14T10:52:49;14.75;;;2.78;;
52186;SDS011;38161;53.020;6.598;2023-03-14T10:55:17;17.70;;;3.33;;
52186;SDS011;38161;53.020;6.598;2023-03-14T10:57:43;23.23;;;2.40;;
52186;SDS011;38161;53.020;6.598;2023-03-14T11:00:14;17.05;;;2.72;;
52186;SDS011;38161;53.020;6.598;2023-03-14T11:05:44;12.73;;;2.70;;
52186;SDS011;38161;53.020;6.598;2023-03-14T11:11:30;16.50;;;2.42;;
52186;SDS011;38161;53.020;6.598;2023-03-14T11:27:18;10.10;;;2.22;;
52186;SDS011;38161;53.020;6.598;2023-03-14T11:30:12;8.98;;;1.70;;
52186;SDS011;38161;53.020;6.598;2023-03-14T11:35:30;9.43;;;2.15;;
52186;SDS011;38161;53.020;6.598;2023-03-14T11:40:53;14.50;;;2.70;;
52186;SDS011;38161;53.020;6.598;2023-03-14T11:45:57;13.05;;;1.70;;
52186;SDS011;38161;53.020;6.598;2023-03-14T11:48:38;10.93;;;1.90;;
52186;SDS011;38161;53.020;6.598;2023-03-14T11:51:16;10.27;;;1.63;;
52186;SDS011;38161;53.020;6.598;2023-03-14T11:56:25;14.13;;;2.85;;
52186;SDS011;38161;53.020;6.598;2023-03-14T11:59:00;13.60;;;2.50;;
52186;SDS011;38161;53.020;6.598;2023-03-14T12:01:36;5.13;;;1.33;;
52186;SDS011;38161;53.020;6.598;2023-03-14T12:04:16;10.15;;;1.85;;
52186;SDS011;38161;53.020;6.598;2023-03-14T12:07:02;5.32;;;1.63;;
52186;SDS011;38161;53.020;6.598;2023-03-14T12:09:34;13.38;;;1.60;;
52186;SDS011;38161;53.020;6.598;2023-03-14T12:12:01;8.52;;;1.70;;
52186;SDS011;38161;53.020;6.598;2023-03-14T12:14:32;12.45;;;1.77;;
52186;SDS011;38161;53.020;6.598;2023-03-14T12:17:06;7.18;;;1.67;;
52186;SDS011;38161;53.020;6.598;2023-03-14T12:19:47;6.40;;;1.53;;
52186;SDS011;38161;53.020;6.598;2023-03-14T12:22:26;6.10;;;1.40;;
52186;SDS011;38161;53.020;6.598;2023-03-14T12:25:36;9.77;;;1.80;;
52186;SDS011;38161;53.020;6.598;2023-03-14T12:27:46;4.45;;;1.13;;
52186;SDS011;38161;53.020;6.598;2023-03-14T12:35:36;9.20;;;1.55;;
52186;SDS011;38161;53.020;6.598;2023-03-14T12:38:04;12.60;;;1.45;;
52186;SDS011;38161;53.020;6.598;2023-03-14T12:43:54;8.82;;;2.10;;
52186;SDS011;38161;53.020;6.598;2023-03-14T12:46:24;12.05;;;1.83;;
52186;SDS011;38161;53.020;6.598;2023-03-14T12:48:55;8.77;;;2.10;;
52186;SDS011;38161;53.020;6.598;2023-03-14T12:51:34;7.28;;;1.90;;
52186;SDS011;38161;53.020;6.598;2023-03-14T12:54:19;12.73;;;1.90;;
52186;SDS011;38161;53.020;6.598;2023-03-14T12:59:50;6.30;;;1.20;;
52186;SDS011;38161;53.020;6.598;2023-03-14T13:02:54;10.05;;;1.38;;
52186;SDS011;38161;53.020;6.598;2023-03-14T13:12:51;6.32;;;1.33;;
52186;SDS011;38161;53.020;6.598;2023-03-14T13:15:21;11.70;;;1.58;;
52186;SDS011;38161;53.020;6.598;2023-03-14T13:17:54;6.93;;;1.58;;
52186;SDS011;38161;53.020;6.598;2023-03-14T13:20:31;11.02;;;1.75;;
52186;SDS011;38161;53.020;6.598;2023-03-14T13:23:00;9.30;;;1.52;;
52186;SDS011;38161;53.020;6.598;2023-03-14T13:25:29;10.48;;;1.92;;
52186;SDS011;38161;53.020;6.598;2023-03-14T13:27:58;8.82;;;1.60;;
52186;SDS011;38161;53.020;6.598;2023-03-14T13:30:25;8.83;;;2.27;;
52186;SDS011;38161;53.020;6.598;2023-03-14T13:32:52;9.35;;;1.30;;
52186;SDS011;38161;53.020;6.598;2023-03-14T13:35:23;9.95;;;1.65;;
52186;SDS011;38161;53.020;6.598;2023-03-14T13:37:56;4.90;;;1.10;;
52186;SDS011;38161;53.020;6.598;2023-03-14T13:40:33;11.68;;;1.35;;
52186;SDS011;38161;53.020;6.598;2023-03-14T13:43:04;6.70;;;1.20;;
52186;SDS011;38161;53.020;6.598;2023-03-14T13:48:14;8.90;;;1.70;;
52186;SDS011;38161;53.020;6.598;2023-03-14T13:53:11;6.25;;;1.55;;
52186;SDS011;38161;53.020;6.598;2023-03-14T13:55:37;9.98;;;2.20;;
52186;SDS011;38161;53.020;6.598;2023-03-14T13:58:03;7.50;;;1.23;;
52186;SDS011;38161;53.020;6.598;2023-03-14T14:00:29;7.27;;;1.47;;
52186;SDS011;38161;53.020;6.598;2023-03-14T14:02:55;9.55;;;1.92;;
52186;SDS011;38161;53.020;6.598;2023-03-14T14:05:25;9.27;;;1.60;;
52186;SDS011;38161;53.020;6.598;2023-03-14T14:07:52;8.68;;;1.48;;
52186;SDS011;38161;53.020;6.598;2023-03-14T14:10:19;9.68;;;1.63;;
52186;SDS011;38161;53.020;6.598;2023-03-14T14:12:50;11.18;;;1.77;;
52186;SDS011;38161;53.020;6.598;2023-03-14T14:15:23;13.90;;;1.75;;
52186;SDS011;38161;53.020;6.598;2023-03-14T14:17:53;9.20;;;1.88;;
52186;SDS011;38161;53.020;6.598;2023-03-14T14:22:56;10.30;;;1.90;;
52186;SDS011;38161;53.020;6.598;2023-03-14T14:25:23;11.68;;;1.40;;
52186;SDS011;38161;53.020;6.598;2023-03-14T14:27:50;7.72;;;1.70;;
52186;SDS011;38161;53.020;6.598;2023-03-14T14:32:47;7.90;;;1.30;;
52186;SDS011;38161;53.020;6.598;2023-03-14T14:35:25;7.18;;;1.30;;
52186;SDS011;38161;53.020;6.598;2023-03-14T14:37:56;8.00;;;1.35;;
52186;SDS011;38161;53.020;6.598;2023-03-14T14:40:23;6.25;;;1.13;;
52186;SDS011;38161;53.020;6.598;2023-03-14T14:42:52;9.05;;;1.60;;
52186;SDS011;38161;53.020;6.598;2023-03-14T14:47:52;13.75;;;1.73;;
52186;SDS011;38161;53.020;6.598;2023-03-14T14:50:33;11.88;;;2.10;;
52186;SDS011;38161;53.020;6.598;2023-03-14T14:53:03;11.63;;;2.22;;
52186;SDS011;38161;53.020;6.598;2023-03-14T14:55:53;13.55;;;2.25;;
52186;SDS011;38161;53.020;6.598;2023-03-14T14:58:25;11.30;;;1.83;;
52186;SDS011;38161;53.020;6.598;2023-03-14T15:01:05;8.65;;;1.98;;
52186;SDS011;38161;53.020;6.598;2023-03-14T15:03:47;12.60;;;2.20;;
52186;SDS011;38161;53.020;6.598;2023-03-14T15:06:16;13.02;;;2.03;;
52186;SDS011;38161;53.020;6.598;2023-03-14T15:08:43;8.95;;;1.98;;
52186;SDS011;38161;53.020;6.598;2023-03-14T15:11:21;9.10;;;1.95;;
52186;SDS011;38161;53.020;6.598;2023-03-14T15:13:49;12.68;;;1.88;;
52186;SDS011;38161;53.020;6.598;2023-03-14T15:16:16;11.90;;;1.55;;
52186;SDS011;38161;53.020;6.598;2023-03-14T15:18:54;8.40;;;1.67;;
52186;SDS011;38161;53.020;6.598;2023-03-14T15:21:22;11.00;;;1.88;;
52186;SDS011;38161;53.020;6.598;2023-03-14T15:23:48;12.48;;;1.85;;
52186;SDS011;38161;53.020;6.598;2023-03-14T15:26:15;9.30;;;1.45;;
52186;SDS011;38161;53.020;6.598;2023-03-14T15:28:43;5.35;;;1.48;;
52186;SDS011;38161;53.020;6.598;2023-03-14T15:31:09;6.85;;;1.38;;
52186;SDS011;38161;53.020;6.598;2023-03-14T15:33:36;9.75;;;1.60;;
52186;SDS011;38161;53.020;6.598;2023-03-14T15:36:02;12.00;;;1.63;;
52186;SDS011;38161;53.020;6.598;2023-03-14T15:38:29;5.15;;;1.38;;
52186;SDS011;38161;53.020;6.598;2023-03-14T15:40:55;6.20;;;1.63;;
52186;SDS011;38161;53.020;6.598;2023-03-14T15:43:20;9.18;;;1.67;;
52186;SDS011;38161;53.020;6.598;2023-03-14T15:45:46;9.23;;;1.50;;
52186;SDS011;38161;53.020;6.598;2023-03-14T15:48:21;11.63;;;1.70;;
52186;SDS011;38161;53.020;6.598;2023-03-14T15:50:47;7.25;;;1.58;;
52186;SDS011;38161;53.020;6.598;2023-03-14T15:53:13;11.67;;;1.87;;
52186;SDS011;38161;53.020;6.598;2023-03-14T15:55:39;14.82;;;2.40;;
52186;SDS011;38161;53.020;6.598;2023-03-14T15:58:04;11.97;;;1.60;;
52186;SDS011;38161;53.020;6.598;2023-03-14T16:00:30;4.57;;;1.47;;
52186;SDS011;38161;53.020;6.598;2023-03-14T16:02:56;6.97;;;1.65;;
52186;SDS011;38161;53.020;6.598;2023-03-14T16:05:22;5.53;;;0.90;;
52186;SDS011;38161;53.020;6.598;2023-03-14T16:07:48;8.02;;;0.98;;
52186;SDS011;38161;53.020;6.598;2023-03-14T16:10:14;7.90;;;1.37;;
52186;SDS011;38161;53.020;6.598;2023-03-14T16:12:41;7.40;;;1.30;;
52186;SDS011;38161;53.020;6.598;2023-03-14T16:15:08;9.68;;;1.70;;
52186;SDS011;38161;53.020;6.598;2023-03-14T16:17:34;10.57;;;1.48;;
52186;SDS011;38161;53.020;6.598;2023-03-14T16:20:02;8.75;;;1.40;;
52186;SDS011;38161;53.020;6.598;2023-03-14T16:22:29;13.10;;;1.60;;
52186;SDS011;38161;53.020;6.598;2023-03-14T16:25:00;8.93;;;1.63;;
52186;SDS011;38161;53.020;6.598;2023-03-14T16:27:26;9.88;;;1.73;;